sensor_id;sensor_type;location;lat;lon;timestamp;P1;durP1;ratioP1;P2;durP2;ratioP2
23388;SDS011;11867;51.198;11.966;2022-07-29T00:04:14;4.40;;;1.45;;
23388;SDS011;11867;51.198;11.966;2022-07-29T00:09:18;1.50;;;0.97;;
23388;SDS011;11867;51.198;11.966;2022-07-29T00:14:21;3.88;;;1.30;;
23388;SDS011;11867;51.198;11.966;2022-07-29T00:19:23;5.45;;;1.40;;
23388;SDS011;11867;51.198;11.966;2022-07-29T00:24:28;3.92;;;1.10;;
23388;SDS011;11867;51.198;11.966;2022-07-29T00:29:30;2.33;;;1.20;;
23388;SDS011;11867;51.198;11.966;2022-07-29T00:34:35;2.85;;;1.17;;
23388;SDS011;11867;51.198;11.966;2022-07-29T00:40:05;4.78;;;1.40;;
23388;SDS011;11867;51.198;11.966;2022-07-29T00:45:09;5.50;;;1.20;;
23388;SDS011;11867;51.198;11.966;2022-07-29T00:50:13;2.17;;;1.03;;
23388;SDS011;11867;51.198;11.966;2022-07-29T00:55:17;3.65;;;1.23;;
23388;SDS011;11867;51.198;11.966;2022-07-29T01:00:21;1.98;;;1.30;;
23388;SDS011;11867;51.198;11.966;2022-07-29T01:05:26;2.60;;;1.17;;
23388;SDS011;11867;51.198;11.966;2022-07-29T01:10:51;4.03;;;1.33;;
23388;SDS011;11867;51.198;11.966;2022-07-29T01:15:56;4.47;;;1.40;;
23388;SDS011;11867;51.198;11.966;2022-07-29T01:21:17;2.55;;;1.25;;
23388;SDS011;11867;51.198;11.966;2022-07-29T01:26:41;4.55;;;1.40;;
23388;SDS011;11867;51.198;11.966;2022-07-29T01:31:51;1.52;;;1.27;;
23388;SDS011;11867;51.198;11.966;2022-07-29T01:37:03;4.32;;;1.15;;
23388;SDS011;11867;51.198;11.966;2022-07-29T01:42:12;3.20;;;1.45;;
23388;SDS011;11867;51.198;11.966;2022-07-29T01:47:19;3.05;;;1.42;;
23388;SDS011;11867;51.198;11.966;2022-07-29T01:52:26;4.95;;;1.52;;
23388;SDS011;11867;51.198;11.966;2022-07-29T01:57:33;3.78;;;1.40;;
23388;SDS011;11867;51.198;11.966;2022-07-29T02:02:40;2.60;;;1.08;;
23388;SDS011;11867;51.198;11.966;2022-07-29T02:07:44;7.57;;;1.88;;
23388;SDS011;11867;51.198;11.966;2022-07-29T02:12:50;3.92;;;1.38;;
23388;SDS011;11867;51.198;11.966;2022-07-29T02:17:55;2.50;;;1.30;;
23388;SDS011;11867;51.198;11.966;2022-07-29T02:23:00;3.65;;;1.45;;
23388;SDS011;11867;51.198;11.966;2022-07-29T02:28:04;4.82;;;1.30;;
23388;SDS011;11867;51.198;11.966;2022-07-29T02:33:09;3.53;;;1.35;;
23388;SDS011;11867;51.198;11.966;2022-07-29T02:38:16;4.60;;;1.40;;
23388;SDS011;11867;51.198;11.966;2022-07-29T02:43:37;4.40;;;1.58;;
23388;SDS011;11867;51.198;11.966;2022-07-29T02:48:48;3.25;;;1.42;;
23388;SDS011;11867;51.198;11.966;2022-07-29T02:53:57;2.40;;;1.13;;
23388;SDS011;11867;51.198;11.966;2022-07-29T02:59:10;2.10;;;1.05;;
23388;SDS011;11867;51.198;11.966;2022-07-29T03:04:17;2.72;;;1.70;;
23388;SDS011;11867;51.198;11.966;2022-07-29T03:09:21;3.08;;;1.40;;
23388;SDS011;11867;51.198;11.966;2022-07-29T03:14:26;5.70;;;1.40;;
23388;SDS011;11867;51.198;11.966;2022-07-29T03:19:30;2.47;;;1.27;;
23388;SDS011;11867;51.198;11.966;2022-07-29T03:24:34;3.60;;;1.30;;
23388;SDS011;11867;51.198;11.966;2022-07-29T03:29:37;4.22;;;1.50;;
23388;SDS011;11867;51.198;11.966;2022-07-29T03:34:45;6.85;;;1.58;;
23388;SDS011;11867;51.198;11.966;2022-07-29T03:39:47;7.55;;;1.50;;
23388;SDS011;11867;51.198;11.966;2022-07-29T03:44:53;6.88;;;1.90;;
23388;SDS011;11867;51.198;11.966;2022-07-29T03:50:00;2.58;;;1.30;;
23388;SDS011;11867;51.198;11.966;2022-07-29T03:55:11;3.72;;;1.52;;
23388;SDS011;11867;51.198;11.966;2022-07-29T04:00:14;5.00;;;1.67;;
23388;SDS011;11867;51.198;11.966;2022-07-29T04:05:19;3.30;;;1.60;;
23388;SDS011;11867;51.198;11.966;2022-07-29T04:10:21;5.80;;;1.90;;
23388;SDS011;11867;51.198;11.966;2022-07-29T04:15:31;4.72;;;1.80;;
23388;SDS011;11867;51.198;11.966;2022-07-29T04:20:35;3.40;;;1.52;;
23388;SDS011;11867;51.198;11.966;2022-07-29T04:25:38;3.47;;;1.50;;
23388;SDS011;11867;51.198;11.966;2022-07-29T04:30:41;3.27;;;1.60;;
23388;SDS011;11867;51.198;11.966;2022-07-29T04:35:45;2.60;;;1.60;;
23388;SDS011;11867;51.198;11.966;2022-07-29T04:40:52;3.70;;;1.90;;
23388;SDS011;11867;51.198;11.966;2022-07-29T04:45:56;5.90;;;1.80;;
23388;SDS011;11867;51.198;11.966;2022-07-29T04:51:00;4.95;;;1.58;;
23388;SDS011;11867;51.198;11.966;2022-07-29T04:56:03;4.07;;;1.88;;
23388;SDS011;11867;51.198;11.966;2022-07-29T05:01:05;2.65;;;1.60;;
23388;SDS011;11867;51.198;11.966;2022-07-29T05:06:09;5.13;;;2.13;;
23388;SDS011;11867;51.198;11.966;2022-07-29T05:11:12;3.20;;;1.85;;
23388;SDS011;11867;51.198;11.966;2022-07-29T05:16:21;3.78;;;1.50;;
23388;SDS011;11867;51.198;11.966;2022-07-29T05:21:25;6.57;;;2.03;;
23388;SDS011;11867;51.198;11.966;2022-07-29T05:26:28;6.65;;;2.22;;
23388;SDS011;11867;51.198;11.966;2022-07-29T05:31:30;7.13;;;1.80;;
23388;SDS011;11867;51.198;11.966;2022-07-29T05:36:35;3.42;;;1.33;;
23388;SDS011;11867;51.198;11.966;2022-07-29T05:41:38;3.42;;;1.70;;
23388;SDS011;11867;51.198;11.966;2022-07-29T05:46:41;5.65;;;1.63;;
23388;SDS011;11867;51.198;11.966;2022-07-29T05:51:45;3.13;;;1.60;;
23388;SDS011;11867;51.198;11.966;2022-07-29T05:56:48;10.43;;;1.70;;
23388;SDS011;11867;51.198;11.966;2022-07-29T06:01:51;6.20;;;2.10;;
23388;SDS011;11867;51.198;11.966;2022-07-29T06:06:55;7.38;;;1.70;;
23388;SDS011;11867;51.198;11.966;2022-07-29T06:11:57;3.65;;;1.63;;
23388;SDS011;11867;51.198;11.966;2022-07-29T06:17:00;4.45;;;1.65;;
23388;SDS011;11867;51.198;11.966;2022-07-29T06:22:04;3.50;;;1.80;;
23388;SDS011;11867;51.198;11.966;2022-07-29T06:27:06;4.20;;;1.92;;
23388;SDS011;11867;51.198;11.966;2022-07-29T06:32:09;6.25;;;1.90;;
23388;SDS011;11867;51.198;11.966;2022-07-29T06:37:13;4.57;;;1.88;;
23388;SDS011;11867;51.198;11.966;2022-07-29T06:42:16;8.48;;;1.83;;
23388;SDS011;11867;51.198;11.966;2022-07-29T06:47:18;4.57;;;1.70;;
23388;SDS011;11867;51.198;11.966;2022-07-29T06:52:22;4.90;;;1.70;;
23388;SDS011;11867;51.198;11.966;2022-07-29T06:57:26;7.93;;;1.80;;
23388;SDS011;11867;51.198;11.966;2022-07-29T07:02:29;5.55;;;2.45;;
23388;SDS011;11867;51.198;11.966;2022-07-29T07:07:33;4.35;;;1.98;;
23388;SDS011;11867;51.198;11.966;2022-07-29T07:12:36;8.57;;;2.20;;
23388;SDS011;11867;51.198;11.966;2022-07-29T07:17:39;5.55;;;2.03;;
23388;SDS011;11867;51.198;11.966;2022-07-29T07:22:43;6.78;;;2.33;;
23388;SDS011;11867;51.198;11.966;2022-07-29T07:27:46;5.72;;;2.33;;
23388;SDS011;11867;51.198;11.966;2022-07-29T07:32:48;6.65;;;3.65;;
23388;SDS011;11867;51.198;11.966;2022-07-29T07:37:53;4.90;;;3.10;;
23388;SDS011;11867;51.198;11.966;2022-07-29T07:42:56;5.72;;;2.90;;
23388;SDS011;11867;51.198;11.966;2022-07-29T07:47:58;8.57;;;4.07;;
23388;SDS011;11867;51.198;11.966;2022-07-29T07:53:02;10.20;;;3.30;;
23388;SDS011;11867;51.198;11.966;2022-07-29T08:03:07;7.75;;;3.05;;
23388;SDS011;11867;51.198;11.966;2022-07-29T08:08:18;6.68;;;3.20;;
23388;SDS011;11867;51.198;11.966;2022-07-29T08:18:25;6.80;;;3.23;;
23388;SDS011;11867;51.198;11.966;2022-07-29T08:23:29;10.40;;;3.47;;
23388;SDS011;11867;51.198;11.966;2022-07-29T08:28:49;9.27;;;3.42;;
23388;SDS011;11867;51.198;11.966;2022-07-29T08:33:52;5.65;;;3.10;;
23388;SDS011;11867;51.198;11.966;2022-07-29T08:38:56;6.15;;;3.10;;
23388;SDS011;11867;51.198;11.966;2022-07-29T08:43:58;5.75;;;3.47;;
23388;SDS011;11867;51.198;11.966;2022-07-29T08:49:01;11.30;;;3.90;;
23388;SDS011;11867;51.198;11.966;2022-07-29T08:54:05;7.63;;;4.07;;
23388;SDS011;11867;51.198;11.966;2022-07-29T08:59:09;7.22;;;3.55;;
23388;SDS011;11867;51.198;11.966;2022-07-29T09:04:15;10.05;;;3.63;;
23388;SDS011;11867;51.198;11.966;2022-07-29T09:09:20;12.38;;;4.28;;
23388;SDS011;11867;51.198;11.966;2022-07-29T09:14:23;8.75;;;3.90;;
23388;SDS011;11867;51.198;11.966;2022-07-29T09:19:27;12.43;;;4.95;;
23388;SDS011;11867;51.198;11.966;2022-07-29T09:24:37;6.60;;;4.35;;
23388;SDS011;11867;51.198;11.966;2022-07-29T09:29:44;11.65;;;5.57;;
23388;SDS011;11867;51.198;11.966;2022-07-29T09:34:48;8.30;;;5.05;;
23388;SDS011;11867;51.198;11.966;2022-07-29T09:39:57;17.05;;;7.30;;
23388;SDS011;11867;51.198;11.966;2022-07-29T09:44:59;16.90;;;7.40;;
23388;SDS011;11867;51.198;11.966;2022-07-29T09:50:02;13.02;;;7.70;;
23388;SDS011;11867;51.198;11.966;2022-07-29T09:55:06;26.57;;;11.10;;
23388;SDS011;11867;51.198;11.966;2022-07-29T10:00:14;19.23;;;11.20;;
23388;SDS011;11867;51.198;11.966;2022-07-29T10:05:21;16.63;;;10.38;;
23388;SDS011;11867;51.198;11.966;2022-07-29T10:10:26;16.80;;;8.80;;
23388;SDS011;11867;51.198;11.966;2022-07-29T10:15:31;13.02;;;8.07;;
23388;SDS011;11867;51.198;11.966;2022-07-29T10:20:38;16.13;;;7.30;;
23388;SDS011;11867;51.198;11.966;2022-07-29T10:25:44;9.30;;;5.53;;
23388;SDS011;11867;51.198;11.966;2022-07-29T10:30:48;9.65;;;4.20;;
23388;SDS011;11867;51.198;11.966;2022-07-29T10:35:57;11.20;;;5.18;;
23388;SDS011;11867;51.198;11.966;2022-07-29T10:41:17;9.73;;;3.90;;
23388;SDS011;11867;51.198;11.966;2022-07-29T10:46:43;11.55;;;3.80;;
23388;SDS011;11867;51.198;11.966;2022-07-29T10:51:53;7.90;;;3.40;;
23388;SDS011;11867;51.198;11.966;2022-07-29T10:57:07;10.30;;;3.47;;
23388;SDS011;11867;51.198;11.966;2022-07-29T11:13:51;4.80;;;2.95;;
23388;SDS011;11867;51.198;11.966;2022-07-29T11:24:30;9.23;;;2.90;;
23388;SDS011;11867;51.198;11.966;2022-07-29T11:29:37;5.25;;;2.25;;
23388;SDS011;11867;51.198;11.966;2022-07-29T11:34:43;3.53;;;2.40;;
23388;SDS011;11867;51.198;11.966;2022-07-29T11:39:46;6.63;;;2.47;;
23388;SDS011;11867;51.198;11.966;2022-07-29T11:45:12;8.57;;;2.28;;
23388;SDS011;11867;51.198;11.966;2022-07-29T11:50:39;5.15;;;2.70;;
23388;SDS011;11867;51.198;11.966;2022-07-29T11:55:44;4.53;;;2.72;;
23388;SDS011;11867;51.198;11.966;2022-07-29T12:00:53;4.68;;;2.67;;
23388;SDS011;11867;51.198;11.966;2022-07-29T12:05:56;6.82;;;2.58;;
23388;SDS011;11867;51.198;11.966;2022-07-29T12:11:00;3.17;;;2.35;;
23388;SDS011;11867;51.198;11.966;2022-07-29T12:21:07;6.97;;;2.78;;
23388;SDS011;11867;51.198;11.966;2022-07-29T12:26:12;8.75;;;2.92;;
23388;SDS011;11867;51.198;11.966;2022-07-29T12:36:45;9.05;;;3.78;;
23388;SDS011;11867;51.198;11.966;2022-07-29T12:41:48;4.57;;;3.63;;
23388;SDS011;11867;51.198;11.966;2022-07-29T12:47:02;5.05;;;3.60;;
23388;SDS011;11867;51.198;11.966;2022-07-29T12:57:26;5.25;;;3.63;;
23388;SDS011;11867;51.198;11.966;2022-07-29T13:02:30;4.13;;;3.40;;
23388;SDS011;11867;51.198;11.966;2022-07-29T13:07:33;4.45;;;2.92;;
23388;SDS011;11867;51.198;11.966;2022-07-29T13:13:02;7.97;;;3.17;;
23388;SDS011;11867;51.198;11.966;2022-07-29T13:23:32;6.55;;;2.95;;
23388;SDS011;11867;51.198;11.966;2022-07-29T13:28:38;5.03;;;3.58;;
23388;SDS011;11867;51.198;11.966;2022-07-29T13:33:45;9.65;;;3.80;;
23388;SDS011;11867;51.198;11.966;2022-07-29T13:38:49;8.60;;;3.03;;
23388;SDS011;11867;51.198;11.966;2022-07-29T13:43:51;3.27;;;2.80;;
23388;SDS011;11867;51.198;11.966;2022-07-29T13:48:55;8.30;;;3.83;;
23388;SDS011;11867;51.198;11.966;2022-07-29T13:53:58;7.68;;;4.03;;
23388;SDS011;11867;51.198;11.966;2022-07-29T13:59:00;6.33;;;3.50;;
23388;SDS011;11867;51.198;11.966;2022-07-29T14:04:04;5.10;;;3.57;;
23388;SDS011;11867;51.198;11.966;2022-07-29T14:09:07;4.85;;;3.78;;
23388;SDS011;11867;51.198;11.966;2022-07-29T14:14:10;3.90;;;2.97;;
23388;SDS011;11867;51.198;11.966;2022-07-29T14:19:13;5.77;;;2.80;;
23388;SDS011;11867;51.198;11.966;2022-07-29T14:24:16;5.95;;;2.72;;
23388;SDS011;11867;51.198;11.966;2022-07-29T14:29:24;37.80;;;4.97;;
23388;SDS011;11867;51.198;11.966;2022-07-29T14:34:39;17.40;;;3.55;;
23388;SDS011;11867;51.198;11.966;2022-07-29T14:39:42;32.13;;;4.75;;
23388;SDS011;11867;51.198;11.966;2022-07-29T14:44:51;7.75;;;2.80;;
23388;SDS011;11867;51.198;11.966;2022-07-29T14:49:54;2.93;;;2.60;;
23388;SDS011;11867;51.198;11.966;2022-07-29T14:54:57;10.05;;;3.10;;
23388;SDS011;11867;51.198;11.966;2022-07-29T15:00:00;6.57;;;3.10;;
23388;SDS011;11867;51.198;11.966;2022-07-29T15:05:05;5.07;;;2.50;;
23388;SDS011;11867;51.198;11.966;2022-07-29T15:10:08;7.55;;;3.40;;
23388;SDS011;11867;51.198;11.966;2022-07-29T15:15:14;7.10;;;2.83;;
23388;SDS011;11867;51.198;11.966;2022-07-29T15:20:18;4.70;;;2.87;;
23388;SDS011;11867;51.198;11.966;2022-07-29T15:25:22;4.47;;;2.85;;
23388;SDS011;11867;51.198;11.966;2022-07-29T15:30:25;6.65;;;2.90;;
23388;SDS011;11867;51.198;11.966;2022-07-29T15:35:35;5.55;;;3.10;;
23388;SDS011;11867;51.198;11.966;2022-07-29T15:40:40;4.97;;;3.20;;
23388;SDS011;11867;51.198;11.966;2022-07-29T15:45:44;7.63;;;4.22;;
23388;SDS011;11867;51.198;11.966;2022-07-29T15:51:08;5.10;;;3.10;;
23388;SDS011;11867;51.198;11.966;2022-07-29T15:56:11;5.25;;;3.70;;
23388;SDS011;11867;51.198;11.966;2022-07-29T16:01:13;5.32;;;3.95;;
23388;SDS011;11867;51.198;11.966;2022-07-29T16:06:17;5.28;;;3.42;;
23388;SDS011;11867;51.198;11.966;2022-07-29T16:11:20;5.25;;;3.30;;
23388;SDS011;11867;51.198;11.966;2022-07-29T16:16:22;5.13;;;3.20;;
23388;SDS011;11867;51.198;11.966;2022-07-29T16:21:26;4.93;;;3.33;;
23388;SDS011;11867;51.198;11.966;2022-07-29T16:26:29;7.15;;;3.60;;
23388;SDS011;11867;51.198;11.966;2022-07-29T16:31:32;4.38;;;3.28;;
23388;SDS011;11867;51.198;11.966;2022-07-29T16:36:36;4.33;;;3.23;;
23388;SDS011;11867;51.198;11.966;2022-07-29T16:41:38;7.53;;;3.55;;
23388;SDS011;11867;51.198;11.966;2022-07-29T16:46:42;5.60;;;3.13;;
23388;SDS011;11867;51.198;11.966;2022-07-29T16:51:46;6.95;;;3.20;;
23388;SDS011;11867;51.198;11.966;2022-07-29T16:56:49;4.18;;;3.35;;
23388;SDS011;11867;51.198;11.966;2022-07-29T17:01:52;3.55;;;3.05;;
23388;SDS011;11867;51.198;11.966;2022-07-29T17:06:56;4.43;;;3.27;;
23388;SDS011;11867;51.198;11.966;2022-07-29T17:12:01;3.50;;;2.80;;
23388;SDS011;11867;51.198;11.966;2022-07-29T17:17:03;3.95;;;2.97;;
23388;SDS011;11867;51.198;11.966;2022-07-29T17:22:18;4.32;;;3.10;;
23388;SDS011;11867;51.198;11.966;2022-07-29T17:27:20;4.75;;;3.00;;
23388;SDS011;11867;51.198;11.966;2022-07-29T17:32:23;3.10;;;2.83;;
23388;SDS011;11867;51.198;11.966;2022-07-29T17:37:27;3.20;;;2.90;;
23388;SDS011;11867;51.198;11.966;2022-07-29T17:42:29;4.95;;;2.90;;
23388;SDS011;11867;51.198;11.966;2022-07-29T17:47:32;3.00;;;2.30;;
23388;SDS011;11867;51.198;11.966;2022-07-29T17:52:36;3.83;;;2.50;;
23388;SDS011;11867;51.198;11.966;2022-07-29T17:57:39;3.30;;;2.45;;
23388;SDS011;11867;51.198;11.966;2022-07-29T18:02:42;6.93;;;3.27;;
23388;SDS011;11867;51.198;11.966;2022-07-29T18:07:45;2.87;;;2.60;;
23388;SDS011;11867;51.198;11.966;2022-07-29T18:12:48;2.33;;;2.13;;
23388;SDS011;11867;51.198;11.966;2022-07-29T18:17:51;3.05;;;1.98;;
23388;SDS011;11867;51.198;11.966;2022-07-29T18:22:59;3.08;;;2.28;;
23388;SDS011;11867;51.198;11.966;2022-07-29T18:28:02;3.35;;;1.60;;
23388;SDS011;11867;51.198;11.966;2022-07-29T18:33:06;3.38;;;3.17;;
23388;SDS011;11867;51.198;11.966;2022-07-29T18:38:23;5.97;;;1.80;;
23388;SDS011;11867;51.198;11.966;2022-07-29T18:43:26;2.90;;;2.30;;
23388;SDS011;11867;51.198;11.966;2022-07-29T18:48:28;3.55;;;1.98;;
23388;SDS011;11867;51.198;11.966;2022-07-29T18:53:34;2.50;;;1.70;;
23388;SDS011;11867;51.198;11.966;2022-07-29T18:58:37;1.85;;;1.70;;
23388;SDS011;11867;51.198;11.966;2022-07-29T19:03:39;2.22;;;2.00;;
23388;SDS011;11867;51.198;11.966;2022-07-29T19:08:43;2.33;;;1.92;;
23388;SDS011;11867;51.198;11.966;2022-07-29T19:13:46;2.42;;;1.90;;
23388;SDS011;11867;51.198;11.966;2022-07-29T19:18:48;4.10;;;2.00;;
23388;SDS011;11867;51.198;11.966;2022-07-29T19:23:52;4.35;;;2.10;;
23388;SDS011;11867;51.198;11.966;2022-07-29T19:29:07;2.28;;;1.80;;
23388;SDS011;11867;51.198;11.966;2022-07-29T19:34:10;2.25;;;2.03;;
23388;SDS011;11867;51.198;11.966;2022-07-29T19:39:14;4.22;;;2.03;;
23388;SDS011;11867;51.198;11.966;2022-07-29T19:44:17;2.20;;;2.00;;
23388;SDS011;11867;51.198;11.966;2022-07-29T19:49:19;1.95;;;1.80;;
23388;SDS011;11867;51.198;11.966;2022-07-29T19:54:23;2.83;;;1.80;;
23388;SDS011;11867;51.198;11.966;2022-07-29T19:59:26;4.38;;;3.10;;
23388;SDS011;11867;51.198;11.966;2022-07-29T20:04:29;5.97;;;3.97;;
23388;SDS011;11867;51.198;11.966;2022-07-29T20:09:34;4.03;;;3.28;;
23388;SDS011;11867;51.198;11.966;2022-07-29T20:19:39;3.15;;;2.63;;
23388;SDS011;11867;51.198;11.966;2022-07-29T20:24:44;2.50;;;2.30;;
23388;SDS011;11867;51.198;11.966;2022-07-29T20:29:46;4.35;;;2.92;;
23388;SDS011;11867;51.198;11.966;2022-07-29T20:34:49;6.32;;;2.40;;
23388;SDS011;11867;51.198;11.966;2022-07-29T20:39:53;3.65;;;2.88;;
23388;SDS011;11867;51.198;11.966;2022-07-29T20:44:56;4.43;;;2.22;;
23388;SDS011;11867;51.198;11.966;2022-07-29T20:49:58;5.00;;;2.57;;
23388;SDS011;11867;51.198;11.966;2022-07-29T20:55:02;6.18;;;2.20;;
23388;SDS011;11867;51.198;11.966;2022-07-29T21:00:06;4.65;;;2.40;;
23388;SDS011;11867;51.198;11.966;2022-07-29T21:05:09;2.85;;;2.00;;
23388;SDS011;11867;51.198;11.966;2022-07-29T21:10:13;3.80;;;2.40;;
23388;SDS011;11867;51.198;11.966;2022-07-29T21:15:18;9.75;;;2.78;;
23388;SDS011;11867;51.198;11.966;2022-07-29T21:20:21;5.50;;;2.67;;
23388;SDS011;11867;51.198;11.966;2022-07-29T21:25:25;3.67;;;2.70;;
23388;SDS011;11867;51.198;11.966;2022-07-29T21:30:28;5.13;;;2.60;;
23388;SDS011;11867;51.198;11.966;2022-07-29T21:35:30;5.60;;;2.75;;
23388;SDS011;11867;51.198;11.966;2022-07-29T21:40:54;3.92;;;2.83;;
23388;SDS011;11867;51.198;11.966;2022-07-29T21:45:58;4.78;;;2.58;;
23388;SDS011;11867;51.198;11.966;2022-07-29T21:51:02;4.28;;;3.10;;
23388;SDS011;11867;51.198;11.966;2022-07-29T22:01:15;3.38;;;2.88;;
23388;SDS011;11867;51.198;11.966;2022-07-29T22:06:17;3.10;;;2.38;;
23388;SDS011;11867;51.198;11.966;2022-07-29T22:11:21;2.97;;;2.45;;
23388;SDS011;11867;51.198;11.966;2022-07-29T22:16:24;3.40;;;2.70;;
23388;SDS011;11867;51.198;11.966;2022-07-29T22:21:26;3.35;;;2.60;;
23388;SDS011;11867;51.198;11.966;2022-07-29T22:26:30;6.93;;;3.10;;
23388;SDS011;11867;51.198;11.966;2022-07-29T22:31:33;7.03;;;3.30;;
23388;SDS011;11867;51.198;11.966;2022-07-29T22:36:35;5.20;;;3.33;;
23388;SDS011;11867;51.198;11.966;2022-07-29T22:41:39;4.25;;;3.35;;
23388;SDS011;11867;51.198;11.966;2022-07-29T22:46:42;5.30;;;4.20;;
23388;SDS011;11867;51.198;11.966;2022-07-29T22:51:44;4.15;;;3.63;;
23388;SDS011;11867;51.198;11.966;2022-07-29T22:56:48;5.55;;;3.50;;
23388;SDS011;11867;51.198;11.966;2022-07-29T23:01:51;5.07;;;4.18;;
23388;SDS011;11867;51.198;11.966;2022-07-29T23:06:53;7.90;;;4.50;;
23388;SDS011;11867;51.198;11.966;2022-07-29T23:11:57;4.57;;;4.15;;
23388;SDS011;11867;51.198;11.966;2022-07-29T23:22:03;5.88;;;4.70;;
23388;SDS011;11867;51.198;11.966;2022-07-29T23:27:08;4.90;;;4.50;;
23388;SDS011;11867;51.198;11.966;2022-07-29T23:32:10;7.95;;;4.15;;
23388;SDS011;11867;51.198;11.966;2022-07-29T23:37:13;4.95;;;4.22;;
23388;SDS011;11867;51.198;11.966;2022-07-29T23:42:17;5.38;;;4.28;;
23388;SDS011;11867;51.198;11.966;2022-07-29T23:47:19;5.00;;;4.50;;
23388;SDS011;11867;51.198;11.966;2022-07-29T23:52:22;5.20;;;4.18;;
23388;SDS011;11867;51.198;11.966;2022-07-29T23:57:30;5.00;;;4.38;;
